sensor_id;sensor_type;location;lat;lon;timestamp;pressure;altitude;pressure_sealevel;temperature;humidity
27888;BME280;15237;49.608;7.170;2022-10-22T00:00:13;973.10;;;22.45;41.69
27888;BME280;15237;49.608;7.170;2022-10-22T00:00:51;973.11;;;22.44;41.71
27888;BME280;15237;49.608;7.170;2022-10-22T00:01:29;973.07;;;22.42;41.73
27888;BME280;15237;49.608;7.170;2022-10-22T00:02:08;973.06;;;22.40;41.75
27888;BME280;15237;49.608;7.170;2022-10-22T00:02:46;973.07;;;22.40;41.74
27888;BME280;15237;49.608;7.170;2022-10-22T00:03:24;973.06;;;22.40;41.73
27888;BME280;15237;49.608;7.170;2022-10-22T00:04:03;973.08;;;22.42;41.72
27888;BME280;15237;49.608;7.170;2022-10-22T00:04:41;973.09;;;22.42;41.73
27888;BME280;15237;49.608;7.170;2022-10-22T00:05:19;973.07;;;22.40;41.78
27888;BME280;15237;49.608;7.170;2022-10-22T00:05:58;973.06;;;22.39;41.80
27888;BME280;15237;49.608;7.170;2022-10-22T00:06:36;973.05;;;22.38;41.78
27888;BME280;15237;49.608;7.170;2022-10-22T00:07:14;973.02;;;22.39;41.79
27888;BME280;15237;49.608;7.170;2022-10-22T00:07:55;973.02;;;22.39;41.79
27888;BME280;15237;49.608;7.170;2022-10-22T00:08:33;973.01;;;22.41;41.76
27888;BME280;15237;49.608;7.170;2022-10-22T00:09:12;972.99;;;22.38;41.79
27888;BME280;15237;49.608;7.170;2022-10-22T00:09:50;972.99;;;22.39;41.78
27888;BME280;15237;49.608;7.170;2022-10-22T00:10:32;972.98;;;22.41;41.74
27888;BME280;15237;49.608;7.170;2022-10-22T00:11:14;972.97;;;22.42;41.72
27888;BME280;15237;49.608;7.170;2022-10-22T00:11:55;972.98;;;22.43;41.70
27888;BME280;15237;49.608;7.170;2022-10-22T00:12:37;972.96;;;22.42;41.72
27888;BME280;15237;49.608;7.170;2022-10-22T00:13:19;972.96;;;22.43;41.71
27888;BME280;15237;49.608;7.170;2022-10-22T00:13:59;972.96;;;22.43;41.71
27888;BME280;15237;49.608;7.170;2022-10-22T00:14:37;972.96;;;22.42;41.72
27888;BME280;15237;49.608;7.170;2022-10-22T00:15:16;972.94;;;22.41;41.75
27888;BME280;15237;49.608;7.170;2022-10-22T00:15:56;972.92;;;22.39;41.79
27888;BME280;15237;49.608;7.170;2022-10-22T00:16:34;972.91;;;22.38;41.80
27888;BME280;15237;49.608;7.170;2022-10-22T00:17:12;972.92;;;22.40;41.76
27888;BME280;15237;49.608;7.170;2022-10-22T00:17:50;972.92;;;22.42;41.73
27888;BME280;15237;49.608;7.170;2022-10-22T00:18:28;972.94;;;22.42;41.74
27888;BME280;15237;49.608;7.170;2022-10-22T00:19:07;972.93;;;22.38;41.80
27888;BME280;15237;49.608;7.170;2022-10-22T00:19:45;972.95;;;22.37;41.83
27888;BME280;15237;49.608;7.170;2022-10-22T00:20:24;972.98;;;22.38;41.78
27888;BME280;15237;49.608;7.170;2022-10-22T00:21:02;973.01;;;22.38;41.77
27888;BME280;15237;49.608;7.170;2022-10-22T00:21:46;973.03;;;22.36;41.84
27888;BME280;15237;49.608;7.170;2022-10-22T00:22:23;973.02;;;22.36;41.84
27888;BME280;15237;49.608;7.170;2022-10-22T00:23:02;973.02;;;22.37;41.80
27888;BME280;15237;49.608;7.170;2022-10-22T00:23:41;973.04;;;22.38;41.79
27888;BME280;15237;49.608;7.170;2022-10-22T00:24:20;973.04;;;22.39;41.78
27888;BME280;15237;49.608;7.170;2022-10-22T00:24:57;973.08;;;22.38;41.78
27888;BME280;15237;49.608;7.170;2022-10-22T00:25:35;973.09;;;22.37;41.81
27888;BME280;15237;49.608;7.170;2022-10-22T00:26:14;973.12;;;22.37;41.82
27888;BME280;15237;49.608;7.170;2022-10-22T00:26:51;973.14;;;22.37;41.81
27888;BME280;15237;49.608;7.170;2022-10-22T00:27:29;973.15;;;22.38;41.82
27888;BME280;15237;49.608;7.170;2022-10-22T00:28:09;973.19;;;22.38;41.81
27888;BME280;15237;49.608;7.170;2022-10-22T00:28:47;973.17;;;22.39;41.76
27888;BME280;15237;49.608;7.170;2022-10-22T00:29:25;973.18;;;22.40;41.76
27888;BME280;15237;49.608;7.170;2022-10-22T00:30:03;973.19;;;22.38;41.81
27888;BME280;15237;49.608;7.170;2022-10-22T00:30:42;973.20;;;22.39;41.79
27888;BME280;15237;49.608;7.170;2022-10-22T00:31:20;973.21;;;22.40;41.78
27888;BME280;15237;49.608;7.170;2022-10-22T00:31:58;973.20;;;22.40;41.77
27888;BME280;15237;49.608;7.170;2022-10-22T00:32:41;973.25;;;22.43;41.71
27888;BME280;15237;49.608;7.170;2022-10-22T00:33:19;973.26;;;22.44;41.70
27888;BME280;15237;49.608;7.170;2022-10-22T00:33:57;973.29;;;22.45;41.67
27888;BME280;15237;49.608;7.170;2022-10-22T00:34:42;973.28;;;22.46;41.67
27888;BME280;15237;49.608;7.170;2022-10-22T00:35:20;973.30;;;22.45;41.68
27888;BME280;15237;49.608;7.170;2022-10-22T00:35:58;973.31;;;22.45;41.67
27888;BME280;15237;49.608;7.170;2022-10-22T00:36:35;973.29;;;22.43;41.70
27888;BME280;15237;49.608;7.170;2022-10-22T00:37:13;973.31;;;22.41;41.75
27888;BME280;15237;49.608;7.170;2022-10-22T00:37:51;973.32;;;22.39;41.77
27888;BME280;15237;49.608;7.170;2022-10-22T00:38:29;973.29;;;22.38;41.81
27888;BME280;15237;49.608;7.170;2022-10-22T00:39:07;973.28;;;22.38;41.78
27888;BME280;15237;49.608;7.170;2022-10-22T00:39:45;973.31;;;22.36;41.81
27888;BME280;15237;49.608;7.170;2022-10-22T00:40:24;973.32;;;22.37;41.82
27888;BME280;15237;49.608;7.170;2022-10-22T00:41:06;973.33;;;22.37;41.80
27888;BME280;15237;49.608;7.170;2022-10-22T00:41:45;973.36;;;22.39;41.77
27888;BME280;15237;49.608;7.170;2022-10-22T00:42:24;973.40;;;22.38;41.80
27888;BME280;15237;49.608;7.170;2022-10-22T00:43:03;973.41;;;22.38;41.80
27888;BME280;15237;49.608;7.170;2022-10-22T00:45:54;973.42;;;22.36;41.83
27888;BME280;15237;49.608;7.170;2022-10-22T00:46:32;973.45;;;22.36;41.85
27888;BME280;15237;49.608;7.170;2022-10-22T00:47:10;973.45;;;22.35;41.85
27888;BME280;15237;49.608;7.170;2022-10-22T00:48:33;973.51;;;22.37;41.80
27888;BME280;15237;49.608;7.170;2022-10-22T00:49:11;973.46;;;22.36;41.84
27888;BME280;15237;49.608;7.170;2022-10-22T00:49:49;973.49;;;22.37;41.80
27888;BME280;15237;49.608;7.170;2022-10-22T00:51:11;973.50;;;22.38;41.81
27888;BME280;15237;49.608;7.170;2022-10-22T00:51:49;973.47;;;22.37;41.81
27888;BME280;15237;49.608;7.170;2022-10-22T00:52:27;973.47;;;22.38;41.81
27888;BME280;15237;49.608;7.170;2022-10-22T00:53:07;973.52;;;22.39;41.80
27888;BME280;15237;49.608;7.170;2022-10-22T00:53:51;973.51;;;22.41;41.79
27888;BME280;15237;49.608;7.170;2022-10-22T00:54:30;973.54;;;22.42;41.75
27888;BME280;15237;49.608;7.170;2022-10-22T00:55:09;973.55;;;22.40;41.79
27888;BME280;15237;49.608;7.170;2022-10-22T00:55:49;973.54;;;22.40;41.77
27888;BME280;15237;49.608;7.170;2022-10-22T00:56:28;973.57;;;22.40;41.78
27888;BME280;15237;49.608;7.170;2022-10-22T00:57:06;973.58;;;22.40;41.77
27888;BME280;15237;49.608;7.170;2022-10-22T00:57:44;973.54;;;22.39;41.78
27888;BME280;15237;49.608;7.170;2022-10-22T00:58:25;973.57;;;22.39;41.80
27888;BME280;15237;49.608;7.170;2022-10-22T00:59:04;973.59;;;22.36;41.85
27888;BME280;15237;49.608;7.170;2022-10-22T00:59:43;973.56;;;22.37;41.83
27888;BME280;15237;49.608;7.170;2022-10-22T01:00:22;973.56;;;22.36;41.82
27888;BME280;15237;49.608;7.170;2022-10-22T01:01:03;973.57;;;22.38;41.81
27888;BME280;15237;49.608;7.170;2022-10-22T01:01:42;973.57;;;22.39;41.80
27888;BME280;15237;49.608;7.170;2022-10-22T01:02:22;973.59;;;22.39;41.80
27888;BME280;15237;49.608;7.170;2022-10-22T01:03:00;973.59;;;22.38;41.80
27888;BME280;15237;49.608;7.170;2022-10-22T01:03:39;973.56;;;22.36;41.83
27888;BME280;15237;49.608;7.170;2022-10-22T01:04:19;973.61;;;22.35;41.86
27888;BME280;15237;49.608;7.170;2022-10-22T01:04:57;973.63;;;22.34;41.90
27888;BME280;15237;49.608;7.170;2022-10-22T01:05:38;973.63;;;22.32;41.93
27888;BME280;15237;49.608;7.170;2022-10-22T01:06:20;973.63;;;22.34;41.90
27888;BME280;15237;49.608;7.170;2022-10-22T01:06:59;973.62;;;22.34;41.90
27888;BME280;15237;49.608;7.170;2022-10-22T01:07:44;973.57;;;22.37;41.82
27888;BME280;15237;49.608;7.170;2022-10-22T01:08:27;973.57;;;22.37;41.80
27888;BME280;15237;49.608;7.170;2022-10-22T01:15:23;973.71;;;22.36;41.86
27888;BME280;15237;49.608;7.170;2022-10-22T01:17:33;973.65;;;22.36;41.85
27888;BME280;15237;49.608;7.170;2022-10-22T01:21:01;973.56;;;22.29;41.99
27888;BME280;15237;49.608;7.170;2022-10-22T01:21:43;973.58;;;22.31;41.96
27888;BME280;15237;49.608;7.170;2022-10-22T01:23:12;973.58;;;22.34;41.91
27888;BME280;15237;49.608;7.170;2022-10-22T01:24:39;973.58;;;22.36;41.85
27888;BME280;15237;49.608;7.170;2022-10-22T01:30:18;973.54;;;22.34;41.92
27888;BME280;15237;49.608;7.170;2022-10-22T01:30:56;973.54;;;22.33;41.92
27888;BME280;15237;49.608;7.170;2022-10-22T01:31:36;973.56;;;22.33;41.93
27888;BME280;15237;49.608;7.170;2022-10-22T01:32:16;973.55;;;22.35;41.88
27888;BME280;15237;49.608;7.170;2022-10-22T01:32:57;973.56;;;22.36;41.85
27888;BME280;15237;49.608;7.170;2022-10-22T01:33:36;973.54;;;22.35;41.86
27888;BME280;15237;49.608;7.170;2022-10-22T01:34:15;973.51;;;22.35;41.86
27888;BME280;15237;49.608;7.170;2022-10-22T01:35:43;973.49;;;22.33;41.89
27888;BME280;15237;49.608;7.170;2022-10-22T01:36:23;973.51;;;22.34;41.90
27888;BME280;15237;49.608;7.170;2022-10-22T01:37:02;973.52;;;22.34;41.88
27888;BME280;15237;49.608;7.170;2022-10-22T01:37:43;973.54;;;22.34;41.90
27888;BME280;15237;49.608;7.170;2022-10-22T01:38:23;973.54;;;22.33;41.90
27888;BME280;15237;49.608;7.170;2022-10-22T01:39:02;973.56;;;22.33;41.90
27888;BME280;15237;49.608;7.170;2022-10-22T01:39:41;973.55;;;22.33;41.89
27888;BME280;15237;49.608;7.170;2022-10-22T01:40:26;973.59;;;22.34;41.88
27888;BME280;15237;49.608;7.170;2022-10-22T01:41:04;973.58;;;22.36;41.88
27888;BME280;15237;49.608;7.170;2022-10-22T01:41:43;973.58;;;22.36;41.84
27888;BME280;15237;49.608;7.170;2022-10-22T01:42:25;973.59;;;22.36;41.84
27888;BME280;15237;49.608;7.170;2022-10-22T01:43:07;973.58;;;22.36;41.85
27888;BME280;15237;49.608;7.170;2022-10-22T01:43:45;973.58;;;22.37;41.82
27888;BME280;15237;49.608;7.170;2022-10-22T01:45:04;973.56;;;22.35;41.93
27888;BME280;15237;49.608;7.170;2022-10-22T01:45:53;973.55;;;22.37;41.84
27888;BME280;15237;49.608;7.170;2022-10-22T01:46:32;973.55;;;22.38;41.86
27888;BME280;15237;49.608;7.170;2022-10-22T01:47:16;973.54;;;22.39;41.78
27888;BME280;15237;49.608;7.170;2022-10-22T01:48:00;973.52;;;22.40;41.78
27888;BME280;15237;49.608;7.170;2022-10-22T01:48:49;973.54;;;22.40;41.77
27888;BME280;15237;49.608;7.170;2022-10-22T01:50:13;973.52;;;22.40;41.79
27888;BME280;15237;49.608;7.170;2022-10-22T01:53:04;973.47;;;22.35;41.87
27888;BME280;15237;49.608;7.170;2022-10-22T01:53:42;973.44;;;22.35;41.86
27888;BME280;15237;49.608;7.170;2022-10-22T01:57:58;973.44;;;22.35;41.87
27888;BME280;15237;49.608;7.170;2022-10-22T01:58:42;973.41;;;22.37;41.82
27888;BME280;15237;49.608;7.170;2022-10-22T02:00:06;973.43;;;22.37;41.82
27888;BME280;15237;49.608;7.170;2022-10-22T02:00:49;973.41;;;22.35;41.86
27888;BME280;15237;49.608;7.170;2022-10-22T02:05:09;973.46;;;22.35;41.89
27888;BME280;15237;49.608;7.170;2022-10-22T02:06:33;973.49;;;22.35;41.86
27888;BME280;15237;49.608;7.170;2022-10-22T02:07:14;973.48;;;22.37;41.83
27888;BME280;15237;49.608;7.170;2022-10-22T02:07:58;973.47;;;22.37;41.83
27888;BME280;15237;49.608;7.170;2022-10-22T02:08:39;973.49;;;22.41;41.77
27888;BME280;15237;49.608;7.170;2022-10-22T02:09:18;973.50;;;22.39;41.82
27888;BME280;15237;49.608;7.170;2022-10-22T02:09:58;973.48;;;22.37;41.83
27888;BME280;15237;49.608;7.170;2022-10-22T02:10:39;973.49;;;22.37;41.85
27888;BME280;15237;49.608;7.170;2022-10-22T02:11:21;973.49;;;22.36;41.83
27888;BME280;15237;49.608;7.170;2022-10-22T02:12:00;973.52;;;22.36;41.85
27888;BME280;15237;49.608;7.170;2022-10-22T02:12:41;973.48;;;22.34;41.88
27888;BME280;15237;49.608;7.170;2022-10-22T02:13:21;973.49;;;22.37;41.84
27888;BME280;15237;49.608;7.170;2022-10-22T02:14:00;973.47;;;22.36;41.82
27888;BME280;15237;49.608;7.170;2022-10-22T02:14:44;973.50;;;22.38;41.82
27888;BME280;15237;49.608;7.170;2022-10-22T02:15:24;973.49;;;22.39;41.81
27888;BME280;15237;49.608;7.170;2022-10-22T02:16:04;973.48;;;22.38;41.81
27888;BME280;15237;49.608;7.170;2022-10-22T02:16:44;973.47;;;22.36;41.86
27888;BME280;15237;49.608;7.170;2022-10-22T02:17:23;973.44;;;22.35;41.89
27888;BME280;15237;49.608;7.170;2022-10-22T02:18:03;973.43;;;22.36;41.86
27888;BME280;15237;49.608;7.170;2022-10-22T02:18:45;973.41;;;22.36;41.87
27888;BME280;15237;49.608;7.170;2022-10-22T02:19:41;973.37;;;22.36;41.86
27888;BME280;15237;49.608;7.170;2022-10-22T02:20:12;973.35;;;22.36;41.85
27888;BME280;15237;49.608;7.170;2022-10-22T02:20:54;973.28;;;22.33;41.91
27888;BME280;15237;49.608;7.170;2022-10-22T02:21:32;973.23;;;22.33;41.92
27888;BME280;15237;49.608;7.170;2022-10-22T02:22:10;973.17;;;22.33;41.89
27888;BME280;15237;49.608;7.170;2022-10-22T02:22:50;973.12;;;22.34;41.88
27888;BME280;15237;49.608;7.170;2022-10-22T02:23:28;973.09;;;22.33;41.92
27888;BME280;15237;49.608;7.170;2022-10-22T02:24:07;973.07;;;22.34;41.92
27888;BME280;15237;49.608;7.170;2022-10-22T02:24:46;973.09;;;22.33;41.94
27888;BME280;15237;49.608;7.170;2022-10-22T02:25:26;973.12;;;22.33;41.96
27888;BME280;15237;49.608;7.170;2022-10-22T02:26:10;973.15;;;22.34;41.93
27888;BME280;15237;49.608;7.170;2022-10-22T02:26:54;973.17;;;22.34;41.89
27888;BME280;15237;49.608;7.170;2022-10-22T02:28:18;973.18;;;22.34;41.89
27888;BME280;15237;49.608;7.170;2022-10-22T02:29:02;973.21;;;22.36;41.87
27888;BME280;15237;49.608;7.170;2022-10-22T02:29:46;973.26;;;22.39;41.79
27888;BME280;15237;49.608;7.170;2022-10-22T02:30:27;973.30;;;22.39;41.78
27888;BME280;15237;49.608;7.170;2022-10-22T02:31:14;973.35;;;22.40;41.77
27888;BME280;15237;49.608;7.170;2022-10-22T02:31:51;973.43;;;22.40;41.77
27888;BME280;15237;49.608;7.170;2022-10-22T02:34:00;973.49;;;22.40;41.78
27888;BME280;15237;49.608;7.170;2022-10-22T02:34:40;973.48;;;22.39;41.76
27888;BME280;15237;49.608;7.170;2022-10-22T02:35:20;973.48;;;22.40;41.78
27888;BME280;15237;49.608;7.170;2022-10-22T02:35:59;973.49;;;22.40;41.76
27888;BME280;15237;49.608;7.170;2022-10-22T02:36:39;973.48;;;22.39;41.78
27888;BME280;15237;49.608;7.170;2022-10-22T02:37:18;973.45;;;22.38;41.80
27888;BME280;15237;49.608;7.170;2022-10-22T02:37:58;973.45;;;22.38;41.81
27888;BME280;15237;49.608;7.170;2022-10-22T02:38:40;973.46;;;22.35;41.88
27888;BME280;15237;49.608;7.170;2022-10-22T02:39:28;973.50;;;22.35;41.86
27888;BME280;15237;49.608;7.170;2022-10-22T02:40:08;973.51;;;22.38;41.80
27888;BME280;15237;49.608;7.170;2022-10-22T02:40:49;973.53;;;22.40;41.80
27888;BME280;15237;49.608;7.170;2022-10-22T02:41:27;973.54;;;22.45;41.67
27888;BME280;15237;49.608;7.170;2022-10-22T02:42:06;973.56;;;22.49;41.58
27888;BME280;15237;49.608;7.170;2022-10-22T02:42:47;973.52;;;22.50;41.56
27888;BME280;15237;49.608;7.170;2022-10-22T02:43:27;973.52;;;22.50;41.58
27888;BME280;15237;49.608;7.170;2022-10-22T02:44:08;973.49;;;22.47;41.63
27888;BME280;15237;49.608;7.170;2022-10-22T02:44:49;973.49;;;22.43;41.72
27888;BME280;15237;49.608;7.170;2022-10-22T02:45:27;973.46;;;22.40;41.78
27888;BME280;15237;49.608;7.170;2022-10-22T02:46:05;973.49;;;22.41;41.73
27888;BME280;15237;49.608;7.170;2022-10-22T02:46:49;973.48;;;22.41;41.72
27888;BME280;15237;49.608;7.170;2022-10-22T02:47:27;973.51;;;22.39;41.78
27888;BME280;15237;49.608;7.170;2022-10-22T02:48:05;973.55;;;22.37;41.82
27888;BME280;15237;49.608;7.170;2022-10-22T02:48:44;973.54;;;22.35;41.87
27888;BME280;15237;49.608;7.170;2022-10-22T02:49:22;973.54;;;22.34;41.90
27888;BME280;15237;49.608;7.170;2022-10-22T02:50:00;973.56;;;22.34;41.89
27888;BME280;15237;49.608;7.170;2022-10-22T02:50:38;973.57;;;22.34;41.89
27888;BME280;15237;49.608;7.170;2022-10-22T02:51:21;973.58;;;22.34;41.89
27888;BME280;15237;49.608;7.170;2022-10-22T02:51:59;973.60;;;22.35;41.88
27888;BME280;15237;49.608;7.170;2022-10-22T02:52:37;973.61;;;22.35;41.89
27888;BME280;15237;49.608;7.170;2022-10-22T02:53:16;973.60;;;22.35;41.86
27888;BME280;15237;49.608;7.170;2022-10-22T02:53:54;973.60;;;22.37;41.84
27888;BME280;15237;49.608;7.170;2022-10-22T02:54:33;973.62;;;22.42;41.71
27888;BME280;15237;49.608;7.170;2022-10-22T02:55:12;973.63;;;22.47;41.62
27888;BME280;15237;49.608;7.170;2022-10-22T02:55:50;973.63;;;22.51;41.56
27888;BME280;15237;49.608;7.170;2022-10-22T02:56:29;973.64;;;22.57;41.44
27888;BME280;15237;49.608;7.170;2022-10-22T02:57:07;973.66;;;22.60;41.39
27888;BME280;15237;49.608;7.170;2022-10-22T02:57:47;973.68;;;22.58;41.43
27888;BME280;15237;49.608;7.170;2022-10-22T02:58:24;973.69;;;22.55;41.47
27888;BME280;15237;49.608;7.170;2022-10-22T02:59:03;973.69;;;22.54;41.51
27888;BME280;15237;49.608;7.170;2022-10-22T02:59:41;973.68;;;22.51;41.58
27888;BME280;15237;49.608;7.170;2022-10-22T03:00:19;973.68;;;22.47;41.62
27888;BME280;15237;49.608;7.170;2022-10-22T03:00:58;973.66;;;22.44;41.69
27888;BME280;15237;49.608;7.170;2022-10-22T03:01:36;973.67;;;22.42;41.75
27888;BME280;15237;49.608;7.170;2022-10-22T03:02:14;973.65;;;22.41;41.76
27888;BME280;15237;49.608;7.170;2022-10-22T03:02:53;973.63;;;22.39;41.77
27888;BME280;15237;49.608;7.170;2022-10-22T03:03:31;973.66;;;22.39;41.77
27888;BME280;15237;49.608;7.170;2022-10-22T03:04:11;973.65;;;22.39;41.76
27888;BME280;15237;49.608;7.170;2022-10-22T03:04:52;973.64;;;22.43;41.69
27888;BME280;15237;49.608;7.170;2022-10-22T03:05:31;973.64;;;22.46;41.69
27888;BME280;15237;49.608;7.170;2022-10-22T03:06:09;973.65;;;22.50;41.63
27888;BME280;15237;49.608;7.170;2022-10-22T03:06:48;973.62;;;22.50;41.58
27888;BME280;15237;49.608;7.170;2022-10-22T03:07:26;973.65;;;22.54;41.53
27888;BME280;15237;49.608;7.170;2022-10-22T03:08:03;973.68;;;22.53;41.58
27888;BME280;15237;49.608;7.170;2022-10-22T03:08:42;973.69;;;22.52;41.54
27888;BME280;15237;49.608;7.170;2022-10-22T03:09:21;973.72;;;22.52;41.53
27888;BME280;15237;49.608;7.170;2022-10-22T03:09:59;973.72;;;22.51;41.54
27888;BME280;15237;49.608;7.170;2022-10-22T03:10:38;973.72;;;22.51;41.54
27888;BME280;15237;49.608;7.170;2022-10-22T03:11:16;973.74;;;22.49;41.59
27888;BME280;15237;49.608;7.170;2022-10-22T03:11:58;973.74;;;22.48;41.63
27888;BME280;15237;49.608;7.170;2022-10-22T03:12:37;973.74;;;22.47;41.62
27888;BME280;15237;49.608;7.170;2022-10-22T03:13:17;973.77;;;22.47;41.65
27888;BME280;15237;49.608;7.170;2022-10-22T03:13:55;973.77;;;22.45;41.69
27888;BME280;15237;49.608;7.170;2022-10-22T03:14:34;973.79;;;22.44;41.68
27888;BME280;15237;49.608;7.170;2022-10-22T03:15:13;973.80;;;22.47;41.62
27888;BME280;15237;49.608;7.170;2022-10-22T03:15:51;973.82;;;22.51;41.53
27888;BME280;15237;49.608;7.170;2022-10-22T03:16:29;973.86;;;22.51;41.55
27888;BME280;15237;49.608;7.170;2022-10-22T03:17:10;973.87;;;22.49;41.59
27888;BME280;15237;49.608;7.170;2022-10-22T03:17:48;973.86;;;22.50;41.55
27888;BME280;15237;49.608;7.170;2022-10-22T03:18:26;973.86;;;22.49;41.58
27888;BME280;15237;49.608;7.170;2022-10-22T03:19:05;973.88;;;22.50;41.60
27888;BME280;15237;49.608;7.170;2022-10-22T03:19:43;973.89;;;22.48;41.60
27888;BME280;15237;49.608;7.170;2022-10-22T03:20:21;973.88;;;22.47;41.63
27888;BME280;15237;49.608;7.170;2022-10-22T03:21:02;973.89;;;22.47;41.62
27888;BME280;15237;49.608;7.170;2022-10-22T03:22:20;973.91;;;22.46;41.64
27888;BME280;15237;49.608;7.170;2022-10-22T03:23:01;973.92;;;22.49;41.58
27888;BME280;15237;49.608;7.170;2022-10-22T03:23:40;973.91;;;22.50;41.58
27888;BME280;15237;49.608;7.170;2022-10-22T03:25:03;973.94;;;22.46;41.67
27888;BME280;15237;49.608;7.170;2022-10-22T03:25:47;973.91;;;22.46;41.62
27888;BME280;15237;49.608;7.170;2022-10-22T03:26:26;973.92;;;22.48;41.61
27888;BME280;15237;49.608;7.170;2022-10-22T03:27:04;973.95;;;22.51;41.54
27888;BME280;15237;49.608;7.170;2022-10-22T03:27:42;973.95;;;22.53;41.51
27888;BME280;15237;49.608;7.170;2022-10-22T03:28:19;973.96;;;22.52;41.52
27888;BME280;15237;49.608;7.170;2022-10-22T03:28:59;973.96;;;22.51;41.59
27888;BME280;15237;49.608;7.170;2022-10-22T03:29:37;973.95;;;22.48;41.61
27888;BME280;15237;49.608;7.170;2022-10-22T03:30:19;973.97;;;22.48;41.58
27888;BME280;15237;49.608;7.170;2022-10-22T03:30:59;974.00;;;22.49;41.60
27888;BME280;15237;49.608;7.170;2022-10-22T03:31:36;973.99;;;22.47;41.65
27888;BME280;15237;49.608;7.170;2022-10-22T03:32:14;974.00;;;22.47;41.67
27888;BME280;15237;49.608;7.170;2022-10-22T03:32:52;973.99;;;22.49;41.62
27888;BME280;15237;49.608;7.170;2022-10-22T03:33:30;973.99;;;22.47;41.66
27888;BME280;15237;49.608;7.170;2022-10-22T03:34:08;974.00;;;22.45;41.67
27888;BME280;15237;49.608;7.170;2022-10-22T03:34:46;973.98;;;22.44;41.71
27888;BME280;15237;49.608;7.170;2022-10-22T03:35:25;973.95;;;22.39;41.78
27888;BME280;15237;49.608;7.170;2022-10-22T03:36:07;973.95;;;22.39;41.78
27888;BME280;15237;49.608;7.170;2022-10-22T03:36:48;973.96;;;22.42;41.75
27888;BME280;15237;49.608;7.170;2022-10-22T03:37:31;973.95;;;22.45;41.69
27888;BME280;15237;49.608;7.170;2022-10-22T03:38:11;973.95;;;22.45;41.68
27888;BME280;15237;49.608;7.170;2022-10-22T03:38:49;973.94;;;22.44;41.71
27888;BME280;15237;49.608;7.170;2022-10-22T03:39:33;973.94;;;22.43;41.71
27888;BME280;15237;49.608;7.170;2022-10-22T03:40:11;973.91;;;22.43;41.70
27888;BME280;15237;49.608;7.170;2022-10-22T03:40:50;973.94;;;22.44;41.70
27888;BME280;15237;49.608;7.170;2022-10-22T03:41:28;973.94;;;22.43;41.72
27888;BME280;15237;49.608;7.170;2022-10-22T03:42:06;973.92;;;22.40;41.79
27888;BME280;15237;49.608;7.170;2022-10-22T03:42:49;973.91;;;22.39;41.78
27888;BME280;15237;49.608;7.170;2022-10-22T03:43:29;973.93;;;22.38;41.80
27888;BME280;15237;49.608;7.170;2022-10-22T03:44:11;973.92;;;22.36;41.84
27888;BME280;15237;49.608;7.170;2022-10-22T03:44:49;973.91;;;22.36;41.81
27888;BME280;15237;49.608;7.170;2022-10-22T03:45:27;973.94;;;22.35;41.89
27888;BME280;15237;49.608;7.170;2022-10-22T03:46:05;973.93;;;22.35;41.86
27888;BME280;15237;49.608;7.170;2022-10-22T03:46:43;973.92;;;22.34;41.87
27888;BME280;15237;49.608;7.170;2022-10-22T03:47:21;973.91;;;22.33;41.95
27888;BME280;15237;49.608;7.170;2022-10-22T03:47:59;973.92;;;22.32;41.95
27888;BME280;15237;49.608;7.170;2022-10-22T03:48:38;973.90;;;22.32;41.97
27888;BME280;15237;49.608;7.170;2022-10-22T03:49:18;973.93;;;22.31;41.96
27888;BME280;15237;49.608;7.170;2022-10-22T03:50:02;973.94;;;22.32;41.95
27888;BME280;15237;49.608;7.170;2022-10-22T03:50:40;973.96;;;22.34;41.90
27888;BME280;15237;49.608;7.170;2022-10-22T03:51:18;973.99;;;22.33;41.93
27888;BME280;15237;49.608;7.170;2022-10-22T03:51:56;973.97;;;22.33;41.91
27888;BME280;15237;49.608;7.170;2022-10-22T03:52:36;974.02;;;22.33;41.92
27888;BME280;15237;49.608;7.170;2022-10-22T03:53:20;974.05;;;22.33;41.90
27888;BME280;15237;49.608;7.170;2022-10-22T03:53:58;974.05;;;22.33;41.89
27888;BME280;15237;49.608;7.170;2022-10-22T03:54:36;974.05;;;22.34;41.87
27888;BME280;15237;49.608;7.170;2022-10-22T03:55:15;974.08;;;22.33;41.87
27888;BME280;15237;49.608;7.170;2022-10-22T03:55:58;974.08;;;22.33;41.93
27888;BME280;15237;49.608;7.170;2022-10-22T03:56:38;974.09;;;22.34;41.87
27888;BME280;15237;49.608;7.170;2022-10-22T03:57:17;974.11;;;22.34;41.88
27888;BME280;15237;49.608;7.170;2022-10-22T03:57:55;974.11;;;22.34;41.91
27888;BME280;15237;49.608;7.170;2022-10-22T03:58:33;974.13;;;22.33;41.88
27888;BME280;15237;49.608;7.170;2022-10-22T03:59:14;974.13;;;22.34;41.91
27888;BME280;15237;49.608;7.170;2022-10-22T03:59:55;974.13;;;22.35;41.88
27888;BME280;15237;49.608;7.170;2022-10-22T04:00:34;974.18;;;22.33;41.91
27888;BME280;15237;49.608;7.170;2022-10-22T04:01:13;974.21;;;22.32;41.92
27888;BME280;15237;49.608;7.170;2022-10-22T04:01:51;974.22;;;22.31;41.97
27888;BME280;15237;49.608;7.170;2022-10-22T04:02:29;974.24;;;22.33;41.91
27888;BME280;15237;49.608;7.170;2022-10-22T04:03:10;974.22;;;22.33;41.95
27888;BME280;15237;49.608;7.170;2022-10-22T04:03:48;974.25;;;22.34;41.91
27888;BME280;15237;49.608;7.170;2022-10-22T04:04:26;974.23;;;22.33;41.95
27888;BME280;15237;49.608;7.170;2022-10-22T04:05:07;974.21;;;22.33;41.90
27888;BME280;15237;49.608;7.170;2022-10-22T04:05:45;974.20;;;22.32;41.94
27888;BME280;15237;49.608;7.170;2022-10-22T04:06:23;974.23;;;22.34;41.96
27888;BME280;15237;49.608;7.170;2022-10-22T04:07:01;974.27;;;22.36;41.87
27888;BME280;15237;49.608;7.170;2022-10-22T04:07:39;974.26;;;22.36;41.85
27888;BME280;15237;49.608;7.170;2022-10-22T04:08:17;974.28;;;22.34;41.90
27888;BME280;15237;49.608;7.170;2022-10-22T04:08:55;974.29;;;22.34;41.89
27888;BME280;15237;49.608;7.170;2022-10-22T04:09:36;974.29;;;22.33;41.87
27888;BME280;15237;49.608;7.170;2022-10-22T04:10:14;974.29;;;22.34;41.89
27888;BME280;15237;49.608;7.170;2022-10-22T04:10:51;974.28;;;22.33;41.92
27888;BME280;15237;49.608;7.170;2022-10-22T04:11:30;974.28;;;22.33;41.92
27888;BME280;15237;49.608;7.170;2022-10-22T04:12:08;974.31;;;22.33;41.92
27888;BME280;15237;49.608;7.170;2022-10-22T04:12:47;974.30;;;22.35;41.86